sensor_id;sensor_type;location;lat;lon;timestamp;P1;durP1;ratioP1;P2;durP2;ratioP2
52992;SDS011;38875;52.216;21.040;2022-09-06T00:01:06;8.50;;;1.73;;
52992;SDS011;38875;52.216;21.040;2022-09-06T00:03:37;5.10;;;2.13;;
52992;SDS011;38875;52.216;21.040;2022-09-06T00:06:06;6.55;;;2.30;;
52992;SDS011;38875;52.216;21.040;2022-09-06T00:08:33;4.47;;;2.03;;
52992;SDS011;38875;52.216;21.040;2022-09-06T00:10:59;8.60;;;2.00;;
52992;SDS011;38875;52.216;21.040;2022-09-06T00:13:25;6.25;;;2.10;;
52992;SDS011;38875;52.216;21.040;2022-09-06T00:15:50;5.18;;;1.92;;
52992;SDS011;38875;52.216;21.040;2022-09-06T00:18:16;5.78;;;2.53;;
52992;SDS011;38875;52.216;21.040;2022-09-06T00:20:42;5.93;;;2.10;;
52992;SDS011;38875;52.216;21.040;2022-09-06T00:23:07;7.70;;;2.22;;
52992;SDS011;38875;52.216;21.040;2022-09-06T00:25:33;8.23;;;1.92;;
52992;SDS011;38875;52.216;21.040;2022-09-06T00:28:01;5.05;;;1.92;;
52992;SDS011;38875;52.216;21.040;2022-09-06T00:30:28;4.88;;;1.95;;
52992;SDS011;38875;52.216;21.040;2022-09-06T00:32:55;5.35;;;2.13;;
52992;SDS011;38875;52.216;21.040;2022-09-06T00:35:21;4.22;;;1.80;;
52992;SDS011;38875;52.216;21.040;2022-09-06T00:37:54;6.53;;;1.88;;
52992;SDS011;38875;52.216;21.040;2022-09-06T00:40:24;6.32;;;1.80;;
52992;SDS011;38875;52.216;21.040;2022-09-06T00:42:51;6.95;;;2.30;;
52992;SDS011;38875;52.216;21.040;2022-09-06T00:45:17;3.35;;;1.60;;
52992;SDS011;38875;52.216;21.040;2022-09-06T00:47:43;6.15;;;1.75;;
52992;SDS011;38875;52.216;21.040;2022-09-06T00:50:10;6.50;;;2.00;;
52992;SDS011;38875;52.216;21.040;2022-09-06T00:52:38;5.75;;;1.77;;
52992;SDS011;38875;52.216;21.040;2022-09-06T00:55:05;4.60;;;1.85;;
52992;SDS011;38875;52.216;21.040;2022-09-06T00:57:32;7.47;;;2.33;;
52992;SDS011;38875;52.216;21.040;2022-09-06T00:59:59;5.47;;;1.73;;
52992;SDS011;38875;52.216;21.040;2022-09-06T01:02:26;7.13;;;2.35;;
52992;SDS011;38875;52.216;21.040;2022-09-06T01:04:52;6.93;;;1.92;;
52992;SDS011;38875;52.216;21.040;2022-09-06T01:15:34;5.95;;;1.92;;
52992;SDS011;38875;52.216;21.040;2022-09-06T01:27:04;4.72;;;1.83;;
52992;SDS011;38875;52.216;21.040;2022-09-06T01:35:58;10.98;;;1.98;;
52992;SDS011;38875;52.216;21.040;2022-09-06T01:40:56;6.25;;;1.80;;
52992;SDS011;38875;52.216;21.040;2022-09-06T01:43:23;9.10;;;2.20;;
52992;SDS011;38875;52.216;21.040;2022-09-06T01:48:58;3.92;;;1.60;;
52992;SDS011;38875;52.216;21.040;2022-09-06T02:00:16;4.63;;;1.77;;
52992;SDS011;38875;52.216;21.040;2022-09-06T02:05:23;6.13;;;1.70;;
52992;SDS011;38875;52.216;21.040;2022-09-06T02:08:09;4.07;;;1.85;;
52992;SDS011;38875;52.216;21.040;2022-09-06T02:10:41;4.85;;;2.13;;
52992;SDS011;38875;52.216;21.040;2022-09-06T02:13:09;7.25;;;2.00;;
52992;SDS011;38875;52.216;21.040;2022-09-06T02:15:39;6.63;;;1.90;;
52992;SDS011;38875;52.216;21.040;2022-09-06T02:18:13;10.50;;;2.03;;
52992;SDS011;38875;52.216;21.040;2022-09-06T02:20:48;6.10;;;1.77;;
52992;SDS011;38875;52.216;21.040;2022-09-06T02:23:16;8.52;;;2.03;;
52992;SDS011;38875;52.216;21.040;2022-09-06T02:25:54;3.70;;;1.60;;
52992;SDS011;38875;52.216;21.040;2022-09-06T02:28:23;4.80;;;1.88;;
52992;SDS011;38875;52.216;21.040;2022-09-06T02:30:55;5.93;;;1.70;;
52992;SDS011;38875;52.216;21.040;2022-09-06T02:33:25;5.47;;;1.75;;
52992;SDS011;38875;52.216;21.040;2022-09-06T02:35:55;5.32;;;1.70;;
52992;SDS011;38875;52.216;21.040;2022-09-06T02:38:26;28.05;;;3.70;;
52992;SDS011;38875;52.216;21.040;2022-09-06T02:40:52;18.65;;;2.90;;
52992;SDS011;38875;52.216;21.040;2022-09-06T02:43:19;13.63;;;2.50;;
52992;SDS011;38875;52.216;21.040;2022-09-06T02:45:45;18.67;;;2.92;;
52992;SDS011;38875;52.216;21.040;2022-09-06T02:48:11;6.47;;;2.30;;
52992;SDS011;38875;52.216;21.040;2022-09-06T02:50:37;12.93;;;2.30;;
52992;SDS011;38875;52.216;21.040;2022-09-06T02:53:04;4.60;;;1.60;;
52992;SDS011;38875;52.216;21.040;2022-09-06T02:55:30;9.18;;;1.92;;
52992;SDS011;38875;52.216;21.040;2022-09-06T02:57:57;8.10;;;1.77;;
52992;SDS011;38875;52.216;21.040;2022-09-06T03:00:23;5.93;;;1.90;;
52992;SDS011;38875;52.216;21.040;2022-09-06T03:02:49;6.30;;;1.98;;
52992;SDS011;38875;52.216;21.040;2022-09-06T03:05:15;6.68;;;1.90;;
52992;SDS011;38875;52.216;21.040;2022-09-06T03:07:41;4.25;;;1.50;;
52992;SDS011;38875;52.216;21.040;2022-09-06T03:10:06;5.53;;;1.98;;
52992;SDS011;38875;52.216;21.040;2022-09-06T03:12:32;5.10;;;1.73;;
52992;SDS011;38875;52.216;21.040;2022-09-06T03:14:58;4.32;;;1.90;;
52992;SDS011;38875;52.216;21.040;2022-09-06T03:17:23;5.45;;;1.67;;
52992;SDS011;38875;52.216;21.040;2022-09-06T03:19:49;5.13;;;1.77;;
52992;SDS011;38875;52.216;21.040;2022-09-06T03:22:15;5.57;;;1.95;;
52992;SDS011;38875;52.216;21.040;2022-09-06T03:24:40;8.07;;;2.20;;
52992;SDS011;38875;52.216;21.040;2022-09-06T03:27:06;5.05;;;1.67;;
52992;SDS011;38875;52.216;21.040;2022-09-06T03:29:32;5.72;;;1.70;;
52992;SDS011;38875;52.216;21.040;2022-09-06T03:31:57;8.55;;;1.88;;
52992;SDS011;38875;52.216;21.040;2022-09-06T03:34:23;3.83;;;1.55;;
52992;SDS011;38875;52.216;21.040;2022-09-06T03:36:48;3.97;;;1.63;;
52992;SDS011;38875;52.216;21.040;2022-09-06T03:39:14;5.93;;;1.80;;
52992;SDS011;38875;52.216;21.040;2022-09-06T03:41:40;6.60;;;1.75;;
52992;SDS011;38875;52.216;21.040;2022-09-06T03:44:05;5.28;;;1.83;;
52992;SDS011;38875;52.216;21.040;2022-09-06T03:46:31;8.65;;;1.70;;
52992;SDS011;38875;52.216;21.040;2022-09-06T03:48:57;4.18;;;2.55;;
52992;SDS011;38875;52.216;21.040;2022-09-06T03:51:23;5.88;;;1.77;;
52992;SDS011;38875;52.216;21.040;2022-09-06T03:53:49;6.57;;;1.98;;
52992;SDS011;38875;52.216;21.040;2022-09-06T03:56:15;5.25;;;1.83;;
52992;SDS011;38875;52.216;21.040;2022-09-06T03:58:41;8.48;;;2.28;;
52992;SDS011;38875;52.216;21.040;2022-09-06T04:01:08;6.18;;;1.70;;
52992;SDS011;38875;52.216;21.040;2022-09-06T04:03:35;5.93;;;1.73;;
52992;SDS011;38875;52.216;21.040;2022-09-06T04:06:02;4.97;;;1.92;;
52992;SDS011;38875;52.216;21.040;2022-09-06T04:08:28;6.18;;;1.70;;
52992;SDS011;38875;52.216;21.040;2022-09-06T04:10:55;5.80;;;1.70;;
52992;SDS011;38875;52.216;21.040;2022-09-06T04:13:22;6.90;;;2.00;;
52992;SDS011;38875;52.216;21.040;2022-09-06T04:15:48;9.32;;;2.10;;
52992;SDS011;38875;52.216;21.040;2022-09-06T04:18:15;6.05;;;1.80;;
52992;SDS011;38875;52.216;21.040;2022-09-06T04:20:41;6.25;;;2.10;;
52992;SDS011;38875;52.216;21.040;2022-09-06T04:23:07;6.00;;;1.95;;
52992;SDS011;38875;52.216;21.040;2022-09-06T04:25:33;6.95;;;1.67;;
52992;SDS011;38875;52.216;21.040;2022-09-06T04:27:59;6.60;;;1.65;;
52992;SDS011;38875;52.216;21.040;2022-09-06T04:30:24;6.28;;;2.05;;
52992;SDS011;38875;52.216;21.040;2022-09-06T04:32:50;9.27;;;1.90;;
52992;SDS011;38875;52.216;21.040;2022-09-06T04:35:16;6.50;;;2.00;;
52992;SDS011;38875;52.216;21.040;2022-09-06T04:37:41;7.50;;;1.92;;
52992;SDS011;38875;52.216;21.040;2022-09-06T04:40:07;11.35;;;2.75;;
52992;SDS011;38875;52.216;21.040;2022-09-06T04:42:33;10.27;;;3.13;;
52992;SDS011;38875;52.216;21.040;2022-09-06T04:44:59;9.68;;;2.50;;
52992;SDS011;38875;52.216;21.040;2022-09-06T04:47:25;8.48;;;2.28;;
52992;SDS011;38875;52.216;21.040;2022-09-06T04:49:50;11.27;;;1.83;;
52992;SDS011;38875;52.216;21.040;2022-09-06T04:52:16;12.68;;;2.20;;
52992;SDS011;38875;52.216;21.040;2022-09-06T04:54:42;9.35;;;2.20;;
52992;SDS011;38875;52.216;21.040;2022-09-06T04:57:08;7.05;;;1.75;;
52992;SDS011;38875;52.216;21.040;2022-09-06T04:59:33;9.95;;;2.05;;
52992;SDS011;38875;52.216;21.040;2022-09-06T05:01:59;6.30;;;1.70;;
52992;SDS011;38875;52.216;21.040;2022-09-06T05:04:25;5.57;;;1.70;;
52992;SDS011;38875;52.216;21.040;2022-09-06T05:07:04;6.50;;;2.00;;
52992;SDS011;38875;52.216;21.040;2022-09-06T05:09:31;9.40;;;2.45;;
52992;SDS011;38875;52.216;21.040;2022-09-06T05:11:57;8.82;;;2.38;;
52992;SDS011;38875;52.216;21.040;2022-09-06T05:14:24;10.15;;;1.98;;
52992;SDS011;38875;52.216;21.040;2022-09-06T05:16:50;7.65;;;2.25;;
52992;SDS011;38875;52.216;21.040;2022-09-06T05:19:16;12.88;;;2.80;;
52992;SDS011;38875;52.216;21.040;2022-09-06T05:21:42;8.82;;;2.15;;
52992;SDS011;38875;52.216;21.040;2022-09-06T05:24:08;18.38;;;2.72;;
52992;SDS011;38875;52.216;21.040;2022-09-06T05:26:33;20.27;;;2.95;;
52992;SDS011;38875;52.216;21.040;2022-09-06T05:28:59;11.73;;;2.42;;
52992;SDS011;38875;52.216;21.040;2022-09-06T05:31:25;12.02;;;2.08;;
52992;SDS011;38875;52.216;21.040;2022-09-06T05:33:53;14.77;;;2.30;;
52992;SDS011;38875;52.216;21.040;2022-09-06T05:36:20;12.75;;;2.10;;
52992;SDS011;38875;52.216;21.040;2022-09-06T05:38:48;6.85;;;1.80;;
52992;SDS011;38875;52.216;21.040;2022-09-06T05:41:15;5.72;;;1.55;;
52992;SDS011;38875;52.216;21.040;2022-09-06T05:43:40;6.40;;;2.00;;
52992;SDS011;38875;52.216;21.040;2022-09-06T05:46:06;10.63;;;2.70;;
52992;SDS011;38875;52.216;21.040;2022-09-06T05:48:32;5.65;;;1.88;;
52992;SDS011;38875;52.216;21.040;2022-09-06T05:50:59;10.68;;;2.03;;
52992;SDS011;38875;52.216;21.040;2022-09-06T05:53:33;5.20;;;1.77;;
52992;SDS011;38875;52.216;21.040;2022-09-06T05:56:03;7.15;;;2.00;;
52992;SDS011;38875;52.216;21.040;2022-09-06T05:58:30;8.20;;;2.08;;
52992;SDS011;38875;52.216;21.040;2022-09-06T06:01:05;6.75;;;1.92;;
52992;SDS011;38875;52.216;21.040;2022-09-06T06:03:39;5.10;;;1.85;;
52992;SDS011;38875;52.216;21.040;2022-09-06T06:06:05;9.55;;;2.10;;
52992;SDS011;38875;52.216;21.040;2022-09-06T06:08:31;4.50;;;1.80;;
52992;SDS011;38875;52.216;21.040;2022-09-06T06:10:58;7.85;;;2.20;;
52992;SDS011;38875;52.216;21.040;2022-09-06T06:13:25;7.50;;;2.15;;
52992;SDS011;38875;52.216;21.040;2022-09-06T06:15:51;7.07;;;1.70;;
52992;SDS011;38875;52.216;21.040;2022-09-06T06:18:17;12.90;;;2.17;;
52992;SDS011;38875;52.216;21.040;2022-09-06T06:20:43;5.60;;;1.83;;
52992;SDS011;38875;52.216;21.040;2022-09-06T06:23:13;7.45;;;1.83;;
52992;SDS011;38875;52.216;21.040;2022-09-06T06:25:39;8.15;;;1.85;;
52992;SDS011;38875;52.216;21.040;2022-09-06T06:28:05;3.35;;;1.50;;
52992;SDS011;38875;52.216;21.040;2022-09-06T06:30:30;5.60;;;1.65;;
52992;SDS011;38875;52.216;21.040;2022-09-06T06:32:56;9.52;;;1.52;;
52992;SDS011;38875;52.216;21.040;2022-09-06T06:35:23;5.28;;;1.30;;
52992;SDS011;38875;52.216;21.040;2022-09-06T06:37:49;5.82;;;1.40;;
52992;SDS011;38875;52.216;21.040;2022-09-06T06:40:15;4.88;;;1.75;;
52992;SDS011;38875;52.216;21.040;2022-09-06T06:42:40;4.88;;;1.92;;
52992;SDS011;38875;52.216;21.040;2022-09-06T06:45:07;9.77;;;1.70;;
52992;SDS011;38875;52.216;21.040;2022-09-06T06:47:33;4.78;;;1.70;;
52992;SDS011;38875;52.216;21.040;2022-09-06T06:49:59;8.63;;;1.80;;
52992;SDS011;38875;52.216;21.040;2022-09-06T06:52:24;6.68;;;1.85;;
52992;SDS011;38875;52.216;21.040;2022-09-06T06:54:50;10.30;;;1.25;;
52992;SDS011;38875;52.216;21.040;2022-09-06T06:57:16;7.70;;;1.83;;
52992;SDS011;38875;52.216;21.040;2022-09-06T06:59:41;2.72;;;1.50;;
52992;SDS011;38875;52.216;21.040;2022-09-06T07:02:07;5.80;;;1.30;;
52992;SDS011;38875;52.216;21.040;2022-09-06T07:04:33;7.00;;;1.20;;
52992;SDS011;38875;52.216;21.040;2022-09-06T07:06:58;4.45;;;1.35;;
52992;SDS011;38875;52.216;21.040;2022-09-06T07:09:24;6.93;;;1.52;;
52992;SDS011;38875;52.216;21.040;2022-09-06T07:11:52;6.85;;;1.45;;
52992;SDS011;38875;52.216;21.040;2022-09-06T07:14:18;6.70;;;1.10;;
52992;SDS011;38875;52.216;21.040;2022-09-06T07:16:44;8.40;;;1.35;;
52992;SDS011;38875;52.216;21.040;2022-09-06T07:19:10;3.58;;;1.20;;
52992;SDS011;38875;52.216;21.040;2022-09-06T07:21:35;2.67;;;1.15;;
52992;SDS011;38875;52.216;21.040;2022-09-06T07:24:01;2.83;;;1.20;;
52992;SDS011;38875;52.216;21.040;2022-09-06T07:26:29;2.88;;;1.30;;
52992;SDS011;38875;52.216;21.040;2022-09-06T07:28:56;2.65;;;0.90;;
52992;SDS011;38875;52.216;21.040;2022-09-06T07:31:23;2.58;;;0.93;;
52992;SDS011;38875;52.216;21.040;2022-09-06T07:33:50;2.95;;;1.27;;
52992;SDS011;38875;52.216;21.040;2022-09-06T07:36:15;5.80;;;1.20;;
52992;SDS011;38875;52.216;21.040;2022-09-06T07:38:41;7.07;;;1.10;;
52992;SDS011;38875;52.216;21.040;2022-09-06T07:41:10;3.33;;;1.30;;
52992;SDS011;38875;52.216;21.040;2022-09-06T07:43:36;4.63;;;0.90;;
52992;SDS011;38875;52.216;21.040;2022-09-06T07:46:03;4.30;;;0.65;;
52992;SDS011;38875;52.216;21.040;2022-09-06T07:48:31;8.68;;;1.75;;
52992;SDS011;38875;52.216;21.040;2022-09-06T07:51:02;4.60;;;1.15;;
52992;SDS011;38875;52.216;21.040;2022-09-06T07:53:30;5.50;;;0.90;;
52992;SDS011;38875;52.216;21.040;2022-09-06T07:55:56;7.32;;;1.23;;
52992;SDS011;38875;52.216;21.040;2022-09-06T07:58:23;4.13;;;0.90;;
52992;SDS011;38875;52.216;21.040;2022-09-06T08:00:48;1.48;;;0.60;;
52992;SDS011;38875;52.216;21.040;2022-09-06T08:03:14;4.43;;;0.98;;
52992;SDS011;38875;52.216;21.040;2022-09-06T08:05:40;2.53;;;0.82;;
52992;SDS011;38875;52.216;21.040;2022-09-06T08:08:05;1.60;;;0.80;;
52992;SDS011;38875;52.216;21.040;2022-09-06T08:10:32;3.70;;;0.82;;
52992;SDS011;38875;52.216;21.040;2022-09-06T08:12:58;3.40;;;0.82;;
52992;SDS011;38875;52.216;21.040;2022-09-06T08:15:24;4.10;;;0.88;;
52992;SDS011;38875;52.216;21.040;2022-09-06T08:17:49;2.13;;;0.77;;
52992;SDS011;38875;52.216;21.040;2022-09-06T08:20:15;3.45;;;0.90;;
52992;SDS011;38875;52.216;21.040;2022-09-06T08:22:42;3.15;;;1.00;;
52992;SDS011;38875;52.216;21.040;2022-09-06T08:25:07;3.03;;;0.80;;
52992;SDS011;38875;52.216;21.040;2022-09-06T08:27:34;4.88;;;0.65;;
52992;SDS011;38875;52.216;21.040;2022-09-06T08:30:01;6.78;;;0.85;;
52992;SDS011;38875;52.216;21.040;2022-09-06T08:32:27;2.15;;;0.90;;
52992;SDS011;38875;52.216;21.040;2022-09-06T08:34:52;1.17;;;0.50;;
52992;SDS011;38875;52.216;21.040;2022-09-06T08:37:18;3.97;;;0.70;;
52992;SDS011;38875;52.216;21.040;2022-09-06T08:39:44;1.63;;;0.68;;
52992;SDS011;38875;52.216;21.040;2022-09-06T08:42:09;3.47;;;0.68;;
52992;SDS011;38875;52.216;21.040;2022-09-06T08:47:17;2.92;;;0.57;;
52992;SDS011;38875;52.216;21.040;2022-09-06T08:49:49;2.05;;;0.80;;
52992;SDS011;38875;52.216;21.040;2022-09-06T08:58:06;3.80;;;0.80;;
52992;SDS011;38875;52.216;21.040;2022-09-06T09:00:39;1.55;;;0.70;;
52992;SDS011;38875;52.216;21.040;2022-09-06T09:03:16;2.60;;;0.75;;
52992;SDS011;38875;52.216;21.040;2022-09-06T09:05:46;2.95;;;0.70;;
52992;SDS011;38875;52.216;21.040;2022-09-06T09:11:01;4.63;;;0.88;;
52992;SDS011;38875;52.216;21.040;2022-09-06T09:16:29;4.13;;;0.82;;
52992;SDS011;38875;52.216;21.040;2022-09-06T09:18:56;1.48;;;0.52;;
52992;SDS011;38875;52.216;21.040;2022-09-06T09:21:27;4.70;;;0.80;;
52992;SDS011;38875;52.216;21.040;2022-09-06T09:23:58;2.05;;;0.90;;
52992;SDS011;38875;52.216;21.040;2022-09-06T09:26:30;3.83;;;0.80;;
52992;SDS011;38875;52.216;21.040;2022-09-06T09:29:09;4.45;;;0.60;;
52992;SDS011;38875;52.216;21.040;2022-09-06T09:34:36;6.40;;;0.80;;
52992;SDS011;38875;52.216;21.040;2022-09-06T09:37:20;6.00;;;0.70;;
52992;SDS011;38875;52.216;21.040;2022-09-06T09:39:49;3.00;;;0.80;;
52992;SDS011;38875;52.216;21.040;2022-09-06T09:42:26;3.13;;;0.47;;
52992;SDS011;38875;52.216;21.040;2022-09-06T09:44:55;3.88;;;0.85;;
52992;SDS011;38875;52.216;21.040;2022-09-06T09:47:28;2.53;;;0.60;;
52992;SDS011;38875;52.216;21.040;2022-09-06T09:49:56;4.00;;;0.90;;
52992;SDS011;38875;52.216;21.040;2022-09-06T09:52:26;2.05;;;0.50;;
52992;SDS011;38875;52.216;21.040;2022-09-06T09:54:56;1.83;;;0.57;;
52992;SDS011;38875;52.216;21.040;2022-09-06T09:57:26;4.68;;;0.65;;
52992;SDS011;38875;52.216;21.040;2022-09-06T09:59:56;1.30;;;0.60;;
52992;SDS011;38875;52.216;21.040;2022-09-06T10:05:22;1.35;;;0.77;;
52992;SDS011;38875;52.216;21.040;2022-09-06T10:07:49;2.85;;;0.70;;
52992;SDS011;38875;52.216;21.040;2022-09-06T10:13:11;1.70;;;0.80;;
52992;SDS011;38875;52.216;21.040;2022-09-06T10:15:39;7.13;;;0.88;;
52992;SDS011;38875;52.216;21.040;2022-09-06T10:18:05;3.25;;;0.57;;
52992;SDS011;38875;52.216;21.040;2022-09-06T10:20:58;3.15;;;0.70;;
52992;SDS011;38875;52.216;21.040;2022-09-06T10:29:01;1.15;;;0.60;;
52992;SDS011;38875;52.216;21.040;2022-09-06T10:31:42;1.33;;;0.63;;
52992;SDS011;38875;52.216;21.040;2022-09-06T10:34:46;2.08;;;0.50;;
52992;SDS011;38875;52.216;21.040;2022-09-06T10:37:28;3.03;;;0.98;;
52992;SDS011;38875;52.216;21.040;2022-09-06T10:40:09;2.67;;;0.52;;
52992;SDS011;38875;52.216;21.040;2022-09-06T10:45:14;3.08;;;0.50;;
52992;SDS011;38875;52.216;21.040;2022-09-06T10:48:26;0.90;;;0.40;;
52992;SDS011;38875;52.216;21.040;2022-09-06T10:56:02;0.73;;;0.40;;
52992;SDS011;38875;52.216;21.040;2022-09-06T10:58:33;2.45;;;0.60;;
52992;SDS011;38875;52.216;21.040;2022-09-06T11:01:04;1.05;;;0.55;;
52992;SDS011;38875;52.216;21.040;2022-09-06T11:03:34;2.05;;;0.40;;
52992;SDS011;38875;52.216;21.040;2022-09-06T11:06:08;0.70;;;0.50;;
52992;SDS011;38875;52.216;21.040;2022-09-06T11:11:20;2.50;;;0.45;;
52992;SDS011;38875;52.216;21.040;2022-09-06T11:13:50;1.60;;;0.60;;
52992;SDS011;38875;52.216;21.040;2022-09-06T11:16:18;2.00;;;0.70;;
52992;SDS011;38875;52.216;21.040;2022-09-06T11:27:43;2.65;;;0.57;;
52992;SDS011;38875;52.216;21.040;2022-09-06T11:30:14;2.67;;;0.57;;
52992;SDS011;38875;52.216;21.040;2022-09-06T11:32:42;3.63;;;0.55;;
52992;SDS011;38875;52.216;21.040;2022-09-06T11:35:23;1.35;;;0.77;;
52992;SDS011;38875;52.216;21.040;2022-09-06T11:37:59;3.55;;;0.63;;
52992;SDS011;38875;52.216;21.040;2022-09-06T11:40:28;3.38;;;0.43;;
52992;SDS011;38875;52.216;21.040;2022-09-06T11:43:08;0.40;;;0.40;;
52992;SDS011;38875;52.216;21.040;2022-09-06T11:45:40;4.72;;;0.90;;
52992;SDS011;38875;52.216;21.040;2022-09-06T11:53:33;1.58;;;0.30;;
52992;SDS011;38875;52.216;21.040;2022-09-06T11:57:07;2.10;;;0.40;;
52992;SDS011;38875;52.216;21.040;2022-09-06T12:04:20;4.40;;;0.60;;
52992;SDS011;38875;52.216;21.040;2022-09-06T12:07:31;4.47;;;0.85;;
52992;SDS011;38875;52.216;21.040;2022-09-06T12:09:38;1.15;;;0.52;;
52992;SDS011;38875;52.216;21.040;2022-09-06T12:12:06;1.50;;;0.35;;
52992;SDS011;38875;52.216;21.040;2022-09-06T12:22:50;0.32;;;0.25;;
52992;SDS011;38875;52.216;21.040;2022-09-06T12:27:29;1.88;;;0.40;;
52992;SDS011;38875;52.216;21.040;2022-09-06T12:30:01;1.45;;;0.60;;
52992;SDS011;38875;52.216;21.040;2022-09-06T12:32:30;1.00;;;0.32;;
52992;SDS011;38875;52.216;21.040;2022-09-06T12:35:00;4.38;;;0.63;;
52992;SDS011;38875;52.216;21.040;2022-09-06T12:37:32;1.25;;;0.57;;
52992;SDS011;38875;52.216;21.040;2022-09-06T12:40:13;1.60;;;0.50;;
52992;SDS011;38875;52.216;21.040;2022-09-06T12:42:39;1.17;;;0.30;;
52992;SDS011;38875;52.216;21.040;2022-09-06T12:45:07;1.30;;;0.50;;
52992;SDS011;38875;52.216;21.040;2022-09-06T12:47:34;1.52;;;0.50;;
52992;SDS011;38875;52.216;21.040;2022-09-06T12:52:45;4.10;;;0.88;;
52992;SDS011;38875;52.216;21.040;2022-09-06T12:55:31;3.38;;;0.65;;
52992;SDS011;38875;52.216;21.040;2022-09-06T12:58:02;1.42;;;0.65;;
52992;SDS011;38875;52.216;21.040;2022-09-06T13:00:33;1.13;;;0.40;;
52992;SDS011;38875;52.216;21.040;2022-09-06T13:03:18;1.48;;;0.50;;
52992;SDS011;38875;52.216;21.040;2022-09-06T13:05:57;1.58;;;0.43;;
52992;SDS011;38875;52.216;21.040;2022-09-06T13:08:30;3.03;;;0.52;;
52992;SDS011;38875;52.216;21.040;2022-09-06T13:11:00;1.55;;;0.55;;
52992;SDS011;38875;52.216;21.040;2022-09-06T13:13:29;0.85;;;0.47;;
52992;SDS011;38875;52.216;21.040;2022-09-06T13:15:54;1.58;;;0.60;;
52992;SDS011;38875;52.216;21.040;2022-09-06T13:18:30;2.40;;;0.73;;
52992;SDS011;38875;52.216;21.040;2022-09-06T13:21:00;1.70;;;0.57;;
52992;SDS011;38875;52.216;21.040;2022-09-06T13:23:41;1.55;;;0.47;;
52992;SDS011;38875;52.216;21.040;2022-09-06T13:26:12;1.58;;;0.60;;
52992;SDS011;38875;52.216;21.040;2022-09-06T13:28:38;2.97;;;0.50;;
52992;SDS011;38875;52.216;21.040;2022-09-06T13:31:08;1.70;;;0.40;;
52992;SDS011;38875;52.216;21.040;2022-09-06T13:33:39;4.68;;;1.13;;
52992;SDS011;38875;52.216;21.040;2022-09-06T13:41:04;1.60;;;0.60;;
52992;SDS011;38875;52.216;21.040;2022-09-06T13:43:38;2.50;;;0.50;;
52992;SDS011;38875;52.216;21.040;2022-09-06T13:46:08;1.52;;;0.50;;
52992;SDS011;38875;52.216;21.040;2022-09-06T13:48:36;2.30;;;0.45;;
52992;SDS011;38875;52.216;21.040;2022-09-06T13:51:04;1.65;;;0.50;;
52992;SDS011;38875;52.216;21.040;2022-09-06T13:53:31;2.15;;;0.55;;
52992;SDS011;38875;52.216;21.040;2022-09-06T13:55:58;1.60;;;0.45;;
52992;SDS011;38875;52.216;21.040;2022-09-06T13:58:25;2.63;;;0.57;;
52992;SDS011;38875;52.216;21.040;2022-09-06T14:00:51;1.20;;;0.60;;
52992;SDS011;38875;52.216;21.040;2022-09-06T14:03:26;1.05;;;0.43;;
52992;SDS011;38875;52.216;21.040;2022-09-06T14:05:54;1.08;;;0.50;;
52992;SDS011;38875;52.216;21.040;2022-09-06T14:08:19;1.27;;;0.50;;
52992;SDS011;38875;52.216;21.040;2022-09-06T14:10:45;1.65;;;0.40;;
52992;SDS011;38875;52.216;21.040;2022-09-06T14:13:14;1.52;;;0.60;;
52992;SDS011;38875;52.216;21.040;2022-09-06T14:15:44;0.85;;;0.38;;
52992;SDS011;38875;52.216;21.040;2022-09-06T14:18:11;4.53;;;0.60;;
52992;SDS011;38875;52.216;21.040;2022-09-06T14:20:37;0.80;;;0.50;;
52992;SDS011;38875;52.216;21.040;2022-09-06T14:23:03;2.63;;;0.70;;
52992;SDS011;38875;52.216;21.040;2022-09-06T14:25:29;1.27;;;0.50;;
52992;SDS011;38875;52.216;21.040;2022-09-06T14:27:55;0.85;;;0.40;;
52992;SDS011;38875;52.216;21.040;2022-09-06T14:30:21;2.28;;;0.50;;
52992;SDS011;38875;52.216;21.040;2022-09-06T14:32:47;3.78;;;0.60;;
52992;SDS011;38875;52.216;21.040;2022-09-06T14:35:13;2.72;;;0.60;;
52992;SDS011;38875;52.216;21.040;2022-09-06T14:37:38;2.28;;;0.73;;
52992;SDS011;38875;52.216;21.040;2022-09-06T14:40:04;3.15;;;0.47;;
52992;SDS011;38875;52.216;21.040;2022-09-06T14:42:31;2.63;;;0.50;;
52992;SDS011;38875;52.216;21.040;2022-09-06T14:44:56;2.53;;;0.55;;
52992;SDS011;38875;52.216;21.040;2022-09-06T14:47:22;0.63;;;0.38;;
52992;SDS011;38875;52.216;21.040;2022-09-06T14:49:48;0.95;;;0.50;;
52992;SDS011;38875;52.216;21.040;2022-09-06T14:52:13;0.70;;;0.40;;
52992;SDS011;38875;52.216;21.040;2022-09-06T14:54:39;2.63;;;0.63;;
52992;SDS011;38875;52.216;21.040;2022-09-06T14:57:05;3.15;;;0.50;;
52992;SDS011;38875;52.216;21.040;2022-09-06T14:59:30;2.78;;;0.70;;
52992;SDS011;38875;52.216;21.040;2022-09-06T15:01:56;1.08;;;0.52;;
52992;SDS011;38875;52.216;21.040;2022-09-06T15:04:22;2.10;;;0.65;;
52992;SDS011;38875;52.216;21.040;2022-09-06T15:06:48;2.90;;;0.98;;
52992;SDS011;38875;52.216;21.040;2022-09-06T15:09:14;1.00;;;0.55;;
52992;SDS011;38875;52.216;21.040;2022-09-06T15:11:46;3.95;;;0.55;;
52992;SDS011;38875;52.216;21.040;2022-09-06T15:14:17;1.27;;;0.70;;
52992;SDS011;38875;52.216;21.040;2022-09-06T15:16:49;6.22;;;0.80;;
52992;SDS011;38875;52.216;21.040;2022-09-06T15:19:17;3.00;;;0.82;;
52992;SDS011;38875;52.216;21.040;2022-09-06T15:21:44;2.33;;;0.50;;
52992;SDS011;38875;52.216;21.040;2022-09-06T15:24:11;1.60;;;0.32;;
52992;SDS011;38875;52.216;21.040;2022-09-06T15:26:37;3.03;;;0.70;;
52992;SDS011;38875;52.216;21.040;2022-09-06T15:29:04;3.53;;;0.88;;
52992;SDS011;38875;52.216;21.040;2022-09-06T15:31:31;3.90;;;0.80;;
52992;SDS011;38875;52.216;21.040;2022-09-06T15:33:58;2.80;;;0.85;;
52992;SDS011;38875;52.216;21.040;2022-09-06T15:36:25;2.92;;;0.63;;
52992;SDS011;38875;52.216;21.040;2022-09-06T15:38:51;2.05;;;0.60;;
52992;SDS011;38875;52.216;21.040;2022-09-06T15:41:19;1.50;;;0.70;;
52992;SDS011;38875;52.216;21.040;2022-09-06T15:43:49;2.30;;;0.40;;
52992;SDS011;38875;52.216;21.040;2022-09-06T15:46:18;0.45;;;0.40;;
52992;SDS011;38875;52.216;21.040;2022-09-06T15:48:48;4.72;;;0.70;;
52992;SDS011;38875;52.216;21.040;2022-09-06T15:51:16;3.53;;;0.90;;
52992;SDS011;38875;52.216;21.040;2022-09-06T15:53:43;6.45;;;0.90;;
52992;SDS011;38875;52.216;21.040;2022-09-06T15:56:10;5.13;;;0.90;;
52992;SDS011;38875;52.216;21.040;2022-09-06T15:58:39;2.58;;;0.82;;
52992;SDS011;38875;52.216;21.040;2022-09-06T16:03:45;3.78;;;0.80;;
52992;SDS011;38875;52.216;21.040;2022-09-06T16:06:14;2.92;;;0.55;;
52992;SDS011;38875;52.216;21.040;2022-09-06T16:08:47;2.35;;;1.10;;
52992;SDS011;38875;52.216;21.040;2022-09-06T16:11:14;2.05;;;0.50;;
52992;SDS011;38875;52.216;21.040;2022-09-06T16:13:41;1.75;;;0.50;;
52992;SDS011;38875;52.216;21.040;2022-09-06T16:16:09;3.97;;;0.82;;
52992;SDS011;38875;52.216;21.040;2022-09-06T16:18:37;1.27;;;0.73;;
52992;SDS011;38875;52.216;21.040;2022-09-06T16:23:37;6.88;;;1.15;;
52992;SDS011;38875;52.216;21.040;2022-09-06T16:26:05;3.28;;;0.80;;
52992;SDS011;38875;52.216;21.040;2022-09-06T16:28:32;1.95;;;1.00;;
52992;SDS011;38875;52.216;21.040;2022-09-06T16:31:00;7.00;;;0.98;;
52992;SDS011;38875;52.216;21.040;2022-09-06T16:33:27;2.45;;;0.90;;
52992;SDS011;38875;52.216;21.040;2022-09-06T16:35:53;6.45;;;1.17;;
52992;SDS011;38875;52.216;21.040;2022-09-06T16:38:18;4.72;;;0.80;;
52992;SDS011;38875;52.216;21.040;2022-09-06T16:40:45;6.63;;;1.00;;
52992;SDS011;38875;52.216;21.040;2022-09-06T16:43:11;1.58;;;0.90;;